createdAt,value
2022-10-28T00:00:44.970Z,96.42
2022-10-28T00:03:35.114Z,96.46
2022-10-28T00:06:09.766Z,96.70
2022-10-28T00:08:42.212Z,96.54
2022-10-28T00:11:16.045Z,96.55
2022-10-28T00:13:48.775Z,96.51
2022-10-28T00:16:23.193Z,96.94
2022-10-28T00:18:55.736Z,97.19
2022-10-28T00:21:30.301Z,97.11
2022-10-28T00:24:02.543Z,97.35
2022-10-28T00:26:36.675Z,97.25
2022-10-28T00:29:10.546Z,97.34
2022-10-28T00:31:42.719Z,97.37
2022-10-28T00:34:16.975Z,97.18
2022-10-28T00:36:49.987Z,97.65
2022-10-28T00:39:24.122Z,97.68
2022-10-28T00:41:59.162Z,97.88
2022-10-28T00:44:56.214Z,98.31
2022-10-28T00:47:41.464Z,98.17
2022-10-28T00:50:25.168Z,97.23
2022-10-28T00:53:02.215Z,96.90
2022-10-28T00:55:35.788Z,97.17
2022-10-28T00:58:10.515Z,97.12
2022-10-28T01:00:42.636Z,97.09
2022-10-28T01:03:14.724Z,97.24
2022-10-28T01:05:51.015Z,97.38
2022-10-28T01:08:23.104Z,97.61
2022-10-28T01:11:33.724Z,97.80
2022-10-28T01:14:21.715Z,97.77
2022-10-28T01:17:10.344Z,97.55
2022-10-28T01:20:11.874Z,97.50
2022-10-28T01:22:52.298Z,97.53
2022-10-28T01:25:47.181Z,97.07
2022-10-28T01:28:46.875Z,97.08
2022-10-28T01:31:31.339Z,97.09
2022-10-28T01:34:13.693Z,97.23
2022-10-28T01:36:57.586Z,96.79
2022-10-28T01:39:35.514Z,97.03
2022-10-28T01:42:23.065Z,95.82
2022-10-28T01:45:03.930Z,96.02
2022-10-28T01:47:43.531Z,96.82
2022-10-28T01:50:22.691Z,97.04
2022-10-28T01:52:58.364Z,96.73
2022-10-28T01:55:34.607Z,96.87
2022-10-28T01:58:09.869Z,97.05
2022-10-28T02:00:44.284Z,96.98
2022-10-28T02:03:17.453Z,96.86
2022-10-28T02:05:53.565Z,96.86
2022-10-28T02:08:36.561Z,96.76
2022-10-28T02:11:26.440Z,95.93
2022-10-28T02:14:08.649Z,95.74
2022-10-28T02:16:49.381Z,95.85
2022-10-28T02:19:34.951Z,95.91
2022-10-28T02:22:19.440Z,96.53
2022-10-28T02:25:02.994Z,96.27
2022-10-28T02:27:42.451Z,96.36
2022-10-28T02:30:18.210Z,96.77
2022-10-28T02:32:55.424Z,96.79
2022-10-28T02:35:32.252Z,96.36
2022-10-28T02:38:09.030Z,96.73
2022-10-28T02:40:43.415Z,96.71
2022-10-28T02:43:18.617Z,96.48
2022-10-28T02:45:54.259Z,96.17
2022-10-28T02:48:29.916Z,95.94
2022-10-28T02:51:08.963Z,96.19
2022-10-28T02:53:48.965Z,96.30
2022-10-28T02:56:23.155Z,96.16
2022-10-28T02:58:55.323Z,96.12
2022-10-28T03:01:27.545Z,96.54
2022-10-28T03:04:00.097Z,96.78
2022-10-28T03:06:32.368Z,97.42
2022-10-28T03:09:04.402Z,97.08
2022-10-28T03:11:36.497Z,97.24
2022-10-28T03:14:10.736Z,96.70
2022-10-28T03:16:45.635Z,96.92
2022-10-28T03:19:17.596Z,97.51
2022-10-28T03:21:49.599Z,97.51
2022-10-28T03:24:21.568Z,97.79
2022-10-28T03:26:53.709Z,97.21
2022-10-28T03:29:25.886Z,97.57
2022-10-28T03:31:58.041Z,97.29
2022-10-28T03:34:30.081Z,97.40
2022-10-28T03:37:02.071Z,97.60
2022-10-28T03:39:34.162Z,97.79
2022-10-28T03:42:06.583Z,98.10
2022-10-28T03:44:38.602Z,98.03
2022-10-28T03:47:10.642Z,98.17
2022-10-28T03:49:42.738Z,98.52
2022-10-28T03:52:14.900Z,97.98
2022-10-28T03:54:46.945Z,97.60
2022-10-28T03:57:18.981Z,97.87
2022-10-28T03:59:51.063Z,97.92
2022-10-28T04:02:23.264Z,97.95
2022-10-28T04:04:55.556Z,97.67
2022-10-28T04:07:27.603Z,98.01
2022-10-28T04:09:59.615Z,98.09
2022-10-28T04:12:31.687Z,98.01
2022-10-28T04:15:04.135Z,98.25
2022-10-28T04:17:38.016Z,98.14
2022-10-28T04:20:12.639Z,98.51
2022-10-28T04:22:44.657Z,98.36
2022-10-28T04:25:17.032Z,98.00
2022-10-28T04:27:49.484Z,98.14
2022-10-28T04:30:21.752Z,97.70
2022-10-28T04:32:53.995Z,97.14
2022-10-28T04:35:26.522Z,96.83
2022-10-28T04:37:58.588Z,97.02
2022-10-28T04:40:30.684Z,97.02
2022-10-28T04:43:02.721Z,97.27
2022-10-28T04:45:35.605Z,97.34
2022-10-28T04:48:09.950Z,97.99
2022-10-28T04:50:42.041Z,97.84
2022-10-28T04:53:15.207Z,97.91
2022-10-28T04:55:47.352Z,97.97
2022-10-28T04:58:19.419Z,98.54
2022-10-28T05:00:51.531Z,98.51
2022-10-28T05:03:23.623Z,98.11
2022-10-28T05:05:55.645Z,97.87
2022-10-28T05:08:27.731Z,98.10
2022-10-28T05:11:00.004Z,97.69
2022-10-28T05:13:32.064Z,97.63
2022-10-28T05:16:04.142Z,98.13
2022-10-28T05:18:36.178Z,97.98
2022-10-28T05:21:08.694Z,97.97
2022-10-28T05:23:40.815Z,97.79
2022-10-28T05:26:12.933Z,98.04
2022-10-28T05:28:44.972Z,98.30
2022-10-28T05:31:17.045Z,98.53
2022-10-28T05:33:49.079Z,98.73
2022-10-28T05:36:21.067Z,98.35
2022-10-28T05:38:53.107Z,97.98
2022-10-28T05:41:25.250Z,98.15
2022-10-28T05:43:57.273Z,98.47
2022-10-28T05:46:29.280Z,98.63
2022-10-28T05:49:01.373Z,98.66
2022-10-28T05:51:33.383Z,98.43
2022-10-28T05:54:05.913Z,98.41
2022-10-28T05:56:37.853Z,98.67
2022-10-28T05:59:09.942Z,98.98
2022-10-28T06:01:42.324Z,99.29
2022-10-28T06:04:14.512Z,98.75
2022-10-28T06:06:46.781Z,99.12
2022-10-28T06:09:18.768Z,99.42
2022-10-28T06:11:49.678Z,99.64
2022-10-28T06:14:21.801Z,99.90
2022-10-28T06:16:53.818Z,99.41
2022-10-28T06:19:25.836Z,99.18
2022-10-28T06:21:57.928Z,99.43
2022-10-28T06:24:30.099Z,99.29
2022-10-28T06:27:02.218Z,99.38
2022-10-28T06:29:34.440Z,99.37
2022-10-28T06:32:08.654Z,99.56
2022-10-28T06:34:40.678Z,99.78
2022-10-28T06:37:12.950Z,99.87
2022-10-28T06:39:49.825Z,99.89
2022-10-28T06:42:21.999Z,99.89
2022-10-28T06:44:54.399Z,99.88
2022-10-28T06:47:28.164Z,99.77
2022-10-28T06:50:00.203Z,99.55
2022-10-28T06:52:32.322Z,99.94
2022-10-28T06:55:04.493Z,100.00
2022-10-28T06:57:36.483Z,100.00
2022-10-28T07:00:12.637Z,99.71
2022-10-28T07:02:46.022Z,99.90
2022-10-28T07:05:18.343Z,99.64
2022-10-28T07:07:50.909Z,99.84
2022-10-28T07:10:23.119Z,99.93
2022-10-28T07:12:56.743Z,99.90
2022-10-28T07:15:29.156Z,100.00
2022-10-28T07:18:02.735Z,99.99
2022-10-28T07:20:34.820Z,99.94
2022-10-28T07:23:06.763Z,99.98
2022-10-28T07:25:38.909Z,100.00
2022-10-28T07:28:11.304Z,100.00
2022-10-28T07:30:43.345Z,100.00
2022-10-28T07:33:15.421Z,100.00
2022-10-28T07:35:47.480Z,100.00
2022-10-28T07:38:19.498Z,100.00
2022-10-28T07:40:51.562Z,100.00
2022-10-28T07:43:23.678Z,100.00
2022-10-28T07:45:59.788Z,100.00
2022-10-28T07:48:32.059Z,99.99
2022-10-28T07:51:05.936Z,99.97
2022-10-28T07:53:38.442Z,100.00
2022-10-28T07:56:13.636Z,100.00
2022-10-28T07:58:46.853Z,100.00
2022-10-28T08:01:21.739Z,100.00
2022-10-28T08:03:53.897Z,100.00
2022-10-28T08:06:26.103Z,100.00
2022-10-28T08:08:59.646Z,100.00
2022-10-28T08:11:31.939Z,100.00
2022-10-28T08:14:04.434Z,100.00
2022-10-28T08:16:36.495Z,100.00
2022-10-28T08:19:08.636Z,100.00
2022-10-28T08:21:40.701Z,100.00
2022-10-28T08:24:12.851Z,100.00
2022-10-28T08:26:44.944Z,100.00
2022-10-28T08:29:17.203Z,100.00
2022-10-28T08:31:49.343Z,100.00
2022-10-28T08:36:58.632Z,100.00
2022-10-28T08:39:30.762Z,100.00
2022-10-28T08:42:20.443Z,100.00
2022-10-28T08:45:15.985Z,100.00
2022-10-28T08:47:58.074Z,100.00
2022-10-28T08:50:33.921Z,100.00
2022-10-28T08:53:15.404Z,100.00
2022-10-28T08:55:52.051Z,100.00
2022-10-28T08:58:27.762Z,100.00
2022-10-28T09:01:01.376Z,100.00
2022-10-28T09:03:39.886Z,100.00
2022-10-28T09:06:13.243Z,100.00
2022-10-28T09:08:48.123Z,100.00
2022-10-28T09:11:45.664Z,100.00
2022-10-28T09:14:36.239Z,100.00
2022-10-28T09:17:17.854Z,100.00
2022-10-28T09:19:52.720Z,100.00
2022-10-28T09:22:38.916Z,100.00
2022-10-28T09:25:26.901Z,100.00
2022-10-28T09:28:16.425Z,100.00
2022-10-28T09:31:01.340Z,100.00
2022-10-28T09:33:48.279Z,100.00
2022-10-28T09:36:26.462Z,100.00
2022-10-28T09:39:02.421Z,100.00
2022-10-28T09:41:39.556Z,100.00
2022-10-28T09:44:19.812Z,100.00
2022-10-28T09:46:56.282Z,100.00
2022-10-28T09:49:33.545Z,100.00
2022-10-28T09:52:15.302Z,100.00
2022-10-28T09:54:52.519Z,100.00
2022-10-28T09:57:33.071Z,100.00
2022-10-28T10:00:06.580Z,100.00
2022-10-28T10:02:42.912Z,100.00
2022-10-28T10:05:18.539Z,100.00
2022-10-28T10:07:53.969Z,100.00
2022-10-28T10:10:29.076Z,100.00
2022-10-28T10:13:01.304Z,100.00
2022-10-28T10:15:37.774Z,100.00
2022-10-28T10:18:17.574Z,100.00
2022-10-28T10:20:52.785Z,100.00
2022-10-28T10:23:28.822Z,100.00
2022-10-28T10:26:06.869Z,100.00
2022-10-28T10:28:45.710Z,100.00
2022-10-28T10:31:23.349Z,100.00
2022-10-28T10:33:57.730Z,100.00
2022-10-28T10:36:31.618Z,100.00
2022-10-28T10:39:05.585Z,100.00
2022-10-28T10:41:39.905Z,100.00
2022-10-28T10:47:24.101Z,100.00
2022-10-28T10:50:14.806Z,100.00
2022-10-28T10:52:55.565Z,100.00
2022-10-28T10:55:35.523Z,100.00
2022-10-28T10:58:11.501Z,99.94
2022-10-28T11:00:49.849Z,99.84
2022-10-28T11:03:26.412Z,99.99
2022-10-28T11:08:59.532Z,99.83
2022-10-28T11:11:40.245Z,100.00
2022-10-28T11:14:25.729Z,100.00
2022-10-28T11:16:59.564Z,100.00
2022-10-28T11:19:34.034Z,100.00
2022-10-28T11:22:22.608Z,99.74
2022-10-28T11:25:21.402Z,99.93
2022-10-28T11:28:05.498Z,99.74
2022-10-28T11:30:54.157Z,99.75
2022-10-28T11:33:38.618Z,97.90
2022-10-28T11:36:22.070Z,97.91
2022-10-28T11:39:10.518Z,98.78
2022-10-28T11:41:54.897Z,97.66
2022-10-28T11:44:36.305Z,98.18
2022-10-28T11:47:23.759Z,98.18
2022-10-28T11:50:24.017Z,98.01
2022-10-28T11:53:22.164Z,98.43
2022-10-28T11:56:04.169Z,98.90
2022-10-28T11:58:48.338Z,98.32
2022-10-28T12:01:37.047Z,97.55
2022-10-28T12:04:21.110Z,98.06
2022-10-28T12:07:20.727Z,97.82
2022-10-28T12:10:13.138Z,97.73
2022-10-28T12:12:55.316Z,97.93
2022-10-28T12:15:34.379Z,98.04
2022-10-28T12:18:12.675Z,98.56
2022-10-28T12:20:53.291Z,98.97
2022-10-28T12:23:27.475Z,98.81
2022-10-28T12:26:03.020Z,98.65
2022-10-28T12:28:39.400Z,98.77
2022-10-28T12:31:22.150Z,99.16
2022-10-28T12:33:57.748Z,99.23
2022-10-28T12:36:36.240Z,99.33
2022-10-28T12:39:16.141Z,99.36
2022-10-28T12:41:57.011Z,99.58
2022-10-28T12:44:30.097Z,99.77
2022-10-28T12:47:14.296Z,100.00
2022-10-28T12:49:58.606Z,100.00
2022-10-28T12:52:42.012Z,100.00
2022-10-28T12:55:28.255Z,100.00
2022-10-28T12:58:03.756Z,100.00
2022-10-28T13:00:41.633Z,100.00
2022-10-28T13:03:16.668Z,100.00
2022-10-28T13:05:53.087Z,100.00
2022-10-28T13:12:10.486Z,100.00
2022-10-28T13:15:10.537Z,100.00
2022-10-28T13:17:54.550Z,100.00
2022-10-28T13:20:40.445Z,100.00
2022-10-28T13:23:35.907Z,100.00
2022-10-28T13:26:22.551Z,100.00
2022-10-28T13:28:58.237Z,100.00
2022-10-28T13:31:41.268Z,100.00
2022-10-28T13:34:15.446Z,100.00
2022-10-28T13:36:57.533Z,100.00
2022-10-28T13:39:43.930Z,100.00
2022-10-28T13:42:48.610Z,100.00
2022-10-28T13:45:48.488Z,100.00
2022-10-28T13:48:54.388Z,100.00
2022-10-28T13:51:45.659Z,100.00
2022-10-28T13:54:32.684Z,100.00
2022-10-28T13:57:14.748Z,100.00
2022-10-28T13:59:59.457Z,100.00
2022-10-28T14:02:37.461Z,100.00
2022-10-28T14:05:12.728Z,100.00
2022-10-28T14:07:55.784Z,100.00
2022-10-28T14:10:30.326Z,100.00
2022-10-28T14:13:06.040Z,100.00
2022-10-28T14:15:40.665Z,100.00
2022-10-28T14:21:17.295Z,100.00
2022-10-28T14:24:12.760Z,100.00
2022-10-28T14:27:28.171Z,100.00
2022-10-28T14:30:29.954Z,100.00
2022-10-28T14:33:23.267Z,100.00
2022-10-28T14:36:09.141Z,100.00
2022-10-28T14:39:20.137Z,100.00
2022-10-28T14:42:19.156Z,100.00
2022-10-28T14:45:08.862Z,100.00
2022-10-28T14:47:58.649Z,100.00
2022-10-28T14:50:39.340Z,100.00
2022-10-28T14:53:19.978Z,100.00
2022-10-28T14:55:59.084Z,100.00
2022-10-28T14:58:36.502Z,100.00
2022-10-28T15:01:27.384Z,100.00
2022-10-28T15:04:02.681Z,100.00
2022-10-28T15:06:40.709Z,100.00
2022-10-28T15:09:20.840Z,100.00
2022-10-28T15:11:59.128Z,100.00
2022-10-28T15:14:37.639Z,100.00
2022-10-28T15:17:19.503Z,100.00
2022-10-28T15:19:54.237Z,100.00
2022-10-28T15:22:25.715Z,100.00
2022-10-28T15:25:04.615Z,100.00
2022-10-28T15:27:39.495Z,100.00
2022-10-28T15:30:19.095Z,100.00
2022-10-28T15:32:52.356Z,100.00
2022-10-28T15:35:43.416Z,100.00
2022-10-28T15:38:39.675Z,100.00
2022-10-28T15:41:41.748Z,100.00
2022-10-28T15:44:40.076Z,100.00
2022-10-28T15:47:29.473Z,100.00
2022-10-28T15:50:21.379Z,100.00
2022-10-28T15:52:57.146Z,100.00
2022-10-28T15:55:41.421Z,100.00
2022-10-28T15:58:39.945Z,100.00
2022-10-28T16:01:28.451Z,100.00
2022-10-28T16:04:00.843Z,100.00
2022-10-28T16:06:35.293Z,100.00
2022-10-28T16:09:20.119Z,100.00
2022-10-28T16:11:56.779Z,100.00
2022-10-28T16:14:38.163Z,100.00
2022-10-28T16:17:16.302Z,100.00
2022-10-28T16:19:54.577Z,100.00
2022-10-28T16:22:29.363Z,100.00
2022-10-28T16:25:01.376Z,100.00
2022-10-28T16:27:34.875Z,100.00
2022-10-28T16:30:08.329Z,100.00
2022-10-28T16:32:42.848Z,100.00
2022-10-28T16:35:18.728Z,100.00
2022-10-28T16:37:55.438Z,100.00
2022-10-28T16:40:50.400Z,100.00
2022-10-28T16:43:21.525Z,100.00
2022-10-28T16:45:55.306Z,100.00
2022-10-28T16:48:28.957Z,100.00
2022-10-28T16:51:03.645Z,100.00
2022-10-28T16:53:34.268Z,100.00
2022-10-28T16:56:12.530Z,100.00
2022-10-28T16:58:46.387Z,100.00
2022-10-28T17:01:22.605Z,100.00
2022-10-28T17:03:54.818Z,100.00
2022-10-28T17:06:26.931Z,100.00
2022-10-28T17:09:03.611Z,100.00
2022-10-28T17:11:35.942Z,100.00
2022-10-28T17:14:08.175Z,100.00
2022-10-28T17:16:43.200Z,100.00
2022-10-28T17:19:15.714Z,100.00
2022-10-28T17:21:47.726Z,100.00
2022-10-28T17:24:20.560Z,100.00
2022-10-28T17:26:53.268Z,100.00
2022-10-28T17:29:25.435Z,100.00
2022-10-28T17:31:57.450Z,100.00
2022-10-28T17:34:29.491Z,100.00
2022-10-28T17:37:01.537Z,100.00
2022-10-28T17:39:33.725Z,100.00
2022-10-28T17:42:06.018Z,100.00
2022-10-28T17:44:38.266Z,100.00
2022-10-28T17:47:12.306Z,100.00
2022-10-28T17:49:44.493Z,100.00
2022-10-28T17:52:16.742Z,100.00
2022-10-28T17:54:48.806Z,100.00
2022-10-28T17:57:21.026Z,100.00
2022-10-28T17:59:53.197Z,100.00
2022-10-28T18:02:25.451Z,100.00
2022-10-28T18:04:57.632Z,100.00
2022-10-28T18:07:29.649Z,100.00
2022-10-28T18:10:01.688Z,100.00
2022-10-28T18:12:33.810Z,100.00
2022-10-28T18:15:09.089Z,100.00
2022-10-28T18:17:41.190Z,100.00
2022-10-28T18:20:14.075Z,100.00
2022-10-28T18:22:46.139Z,100.00
2022-10-28T18:25:18.487Z,100.00
2022-10-28T18:27:50.604Z,100.00
2022-10-28T18:30:22.744Z,100.00
2022-10-28T18:32:55.052Z,100.00
2022-10-28T18:35:27.351Z,100.00
2022-10-28T18:38:01.400Z,100.00
2022-10-28T18:40:33.521Z,100.00
2022-10-28T18:43:05.583Z,100.00
2022-10-28T18:45:37.524Z,100.00
2022-10-28T18:48:10.141Z,100.00
2022-10-28T18:50:44.555Z,100.00
2022-10-28T18:53:19.145Z,100.00
2022-10-28T18:55:51.160Z,100.00
2022-10-28T18:58:26.684Z,100.00
2022-10-28T19:01:06.906Z,100.00
2022-10-28T19:03:40.182Z,100.00
2022-10-28T19:06:14.656Z,100.00
2022-10-28T19:08:51.576Z,100.00
2022-10-28T19:11:25.911Z,100.00
2022-10-28T19:13:59.046Z,100.00
2022-10-28T19:16:33.658Z,100.00
2022-10-28T19:19:07.156Z,100.00
2022-10-28T19:21:39.228Z,100.00
2022-10-28T19:24:11.548Z,100.00
2022-10-28T19:26:43.540Z,100.00
2022-10-28T19:29:15.814Z,100.00
2022-10-28T19:31:48.164Z,100.00
2022-10-28T19:34:20.333Z,100.00
2022-10-28T19:36:52.377Z,100.00
2022-10-28T19:39:24.530Z,100.00
2022-10-28T19:41:56.568Z,100.00
2022-10-28T19:44:28.595Z,100.00
2022-10-28T19:47:00.637Z,100.00
2022-10-28T19:49:37.231Z,100.00
2022-10-28T19:52:11.449Z,100.00
2022-10-28T19:54:43.398Z,100.00
2022-10-28T19:57:15.455Z,100.00
2022-10-28T19:59:47.432Z,100.00
2022-10-28T20:02:19.568Z,100.00
2022-10-28T20:04:56.156Z,100.00
2022-10-28T20:07:28.251Z,100.00
2022-10-28T20:10:00.535Z,100.00
2022-10-28T20:12:32.920Z,100.00
2022-10-28T20:15:07.159Z,100.00
2022-10-28T20:17:39.297Z,100.00
2022-10-28T20:20:15.234Z,100.00
2022-10-28T20:22:47.196Z,100.00
2022-10-28T20:25:19.262Z,100.00
2022-10-28T20:27:52.336Z,100.00
2022-10-28T20:30:24.521Z,100.00
2022-10-28T20:32:56.611Z,100.00
2022-10-28T20:35:28.652Z,100.00
2022-10-28T20:38:00.934Z,100.00
2022-10-28T20:40:34.385Z,100.00
2022-10-28T20:43:07.128Z,100.00
2022-10-28T20:45:39.144Z,100.00
2022-10-28T20:48:11.492Z,100.00
2022-10-28T20:50:52.518Z,100.00
2022-10-28T20:53:26.296Z,100.00
2022-10-28T20:55:59.642Z,100.00
2022-10-28T20:58:33.246Z,100.00
2022-10-28T21:01:09.617Z,100.00
2022-10-28T21:03:42.194Z,100.00
2022-10-28T21:06:16.139Z,100.00
2022-10-28T21:08:48.508Z,100.00
2022-10-28T21:11:22.942Z,100.00
2022-10-28T21:13:57.311Z,100.00
2022-10-28T21:16:30.659Z,100.00
2022-10-28T21:19:03.084Z,100.00
2022-10-28T21:21:35.403Z,100.00
2022-10-28T21:24:09.193Z,100.00
2022-10-28T21:26:41.327Z,100.00
2022-10-28T21:29:13.419Z,100.00
2022-10-28T21:31:45.408Z,100.00
2022-10-28T21:34:17.425Z,100.00
2022-10-28T21:36:49.438Z,100.00
2022-10-28T21:39:21.897Z,100.00
2022-10-28T21:41:53.901Z,100.00
2022-10-28T21:44:25.967Z,100.00
2022-10-28T21:46:58.029Z,100.00
2022-10-28T21:49:30.203Z,100.00
2022-10-28T21:52:02.344Z,100.00
2022-10-28T21:54:35.196Z,100.00
2022-10-28T21:57:07.403Z,100.00
2022-10-28T21:59:40.086Z,100.00
2022-10-28T22:02:12.250Z,100.00
2022-10-28T22:04:44.414Z,100.00
2022-10-28T22:07:16.863Z,100.00
2022-10-28T22:09:48.954Z,100.00
2022-10-28T22:12:21.307Z,100.00
2022-10-28T22:14:53.700Z,100.00
2022-10-28T22:17:25.785Z,100.00
2022-10-28T22:19:57.934Z,100.00
2022-10-28T22:22:31.395Z,100.00
2022-10-28T22:25:07.729Z,100.00
2022-10-28T22:27:42.398Z,100.00
2022-10-28T22:30:16.614Z,100.00
2022-10-28T22:32:48.734Z,100.00
2022-10-28T22:35:20.928Z,100.00
2022-10-28T22:37:53.162Z,100.00
2022-10-28T22:40:25.367Z,100.00
2022-10-28T22:42:57.435Z,100.00
2022-10-28T22:45:29.550Z,100.00
2022-10-28T22:48:01.591Z,100.00
2022-10-28T22:50:33.661Z,100.00
2022-10-28T22:53:05.723Z,100.00
2022-10-28T22:55:37.890Z,100.00
2022-10-28T22:58:09.929Z,100.00
2022-10-28T23:00:42.098Z,100.00
2022-10-28T23:03:14.725Z,100.00
2022-10-28T23:05:46.945Z,100.00
2022-10-28T23:08:19.038Z,100.00
2022-10-28T23:10:51.128Z,100.00
2022-10-28T23:13:23.259Z,100.00
2022-10-28T23:15:55.387Z,100.00
2022-10-28T23:18:30.136Z,100.00
2022-10-28T23:21:05.740Z,100.00
2022-10-28T23:23:37.917Z,100.00
2022-10-28T23:26:11.639Z,100.00
2022-10-28T23:28:44.653Z,100.00
2022-10-28T23:31:17.460Z,100.00
2022-10-28T23:33:49.783Z,100.00
2022-10-28T23:36:22.004Z,100.00
2022-10-28T23:38:54.092Z,100.00
2022-10-28T23:41:26.135Z,100.00
2022-10-28T23:44:00.659Z,100.00
2022-10-28T23:46:36.616Z,100.00
2022-10-28T23:49:10.036Z,100.00
2022-10-28T23:51:42.092Z,100.00
2022-10-28T23:54:14.092Z,100.00
2022-10-28T23:56:46.164Z,100.00
2022-10-28T23:59:18.632Z,100.00
